NCAR-RAP Real-Time Weather Data

Output produced by METARs form (08 May 2021  16:05 UTC)
found at http://weather.rap.ucar.edu/surface/
 
KRWL 081553Z AUTO 25027G39KT 10SM -RA SCT050 11/M06 A2993 RMK AO2 PK WND 25039/1547 RAB53 SLP075 P0000 T01061056
KRWL 081453Z AUTO 25017G24KT 10SM FEW037 09/M02 A2994 RMK AO2 SLP074 T00941017 51008
KRWL 081353Z AUTO 25016KT 10SM CLR 08/M01 A2994 RMK AO2 SLP063 T00781006
KRWL 081253Z AUTO 24013KT 10SM CLR 06/M01 A2993 RMK AO2 PK WND 24029/1205 SLP057 T00561011
KRWL 081153Z AUTO 25015G27KT 10SM SCT065 BKN090 OVC110 07/M02 A2991 RMK AO2 PK WND 25028/1143 SLP047 60000 T00721017 10133 20061 51013
KRWL 081053Z AUTO 25007KT 10SM FEW085 06/M03 A2990 RMK AO2 SLP039 T00611028
KRWL 080953Z AUTO 28010KT 10SM CLR 07/M04 A2989 RMK AO2 PK WND 28036/0856 SLP037 T00721039
KRWL 080853Z AUTO 28025G40KT 10SM CLR 09/M04 A2987 RMK AO2 PK WND 27045/0808 RAB05E53 SLP022 P0000 60000 T00891039 53014
KRWL 080753Z AUTO 26021G32KT 10SM CLR 09/M02 A2985 RMK AO2 PK WND 25038/0707 RAB10E39 SLP014 P0000 T00941022
KRWL 080653Z AUTO 24018G24KT 10SM BKN110 13/M03 A2984 RMK AO2 SLP007 T01331028 402610011
KRWL 080553Z AUTO 22007KT 10SM CLR 09/M03 A2982 RMK AO2 SLP011 T00941033 10239 20083 58001
KRWL 080453Z AUTO 12007KT 10SM CLR 09/M04 A2983 RMK AO2 SLP016 T00891044
KRWL 080353Z AUTO 32005KT 10SM CLR 11/M04 A2983 RMK AO2 SLP022 T01111039
KRWL 080253Z AUTO 26004KT 10SM CLR 14/M07 A2982 RMK AO2 SLP022 T01441067 55002